LES MASIES DE RODA





Hora UTC 07:15
Temperatura 2.7 ºC
Sòl 15 cm 2.2 ºC
Subsòl 10 cm 4.5 ºC
Humitat 94.0 %
Pressió 1015.4 hPa
Pluja 0.0 mm
Velocitat vent 1.7 km/h
Direcció vent ENE
Radiació solar 8.9 W/m²

Dades diàries 2022-12-01



Hora UTC (hivern +1h; estiu +2h)
Temperatura (ºC) Humitat (%) Pressió (hPa) Velocitat vent (km/h) Precipitació (mm) Radiació solar (W/m²)
Hora UTC Aire Sòl 15 cm Subsòl 10 cm Humitat Pressió Vel. Dir. Vel. Max Dir. Intent. màx 5 min. Rad. Sol.
00:05 4.8 3.8 6.1 90.9 1015.5 1.6 ESE 1.6 ENE 0.0 0.1
00:10 4.8 3.8 6.1 90.7 1015.5 3.1 S 5.0 S 0.0 0.1
00:15 4.9 3.6 6.0 90.3 1015.5 1.6 S 3.2 SSE 0.0 0.1
00:20 4.9 3.3 6.0 90.1 1015.5 2.2 SW 4.6 WNW 0.0 0.1
00:25 4.6 2.8 5.9 90.0 1015.4 1.6 W 3.9 W 0.0 0.1
00:30 4.5 2.8 5.9 90.7 1015.4 1.2 WSW 2.5 SW 0.0 0.1
00:35 4.4 2.9 5.8 91.3 1015.4 0.0 NNE 0.0 WSW 0.0 0.1
00:40 4.4 3.1 5.8 91.6 1015.4 1.5 NW 3.2 NW 0.0 0.1
00:45 4.3 3.1 5.8 91.8 1015.4 0.1 NW 2.1 NW 0.0 0.1
00:50 4.3 3.1 5.8 91.9 1015.4 0.0 NNE 0.0 NW 0.0 0.1
00:55 4.4 3.1 5.8 92.1 1015.4 0.0 NNE 0.0 NW 0.0 0.1
01:00 4.4 3.2 5.8 92.2 1015.3 0.0 NNE 0.0 NW 0.0 0.1
01:05 4.4 3.3 5.8 92.2 1015.3 0.0 NNE 0.0 NW 0.0 0.1
01:10 4.4 3.3 5.8 92.2 1015.3 0.0 NNE 0.0 NW 0.0 0.1
01:15 4.4 3.4 5.8 92.3 1015.2 0.0 NNE 0.0 NW 0.0 0.1
01:20 4.4 3.5 5.8 92.2 1015.2 0.0 NNE 0.0 NW 0.0 0.1
01:25 4.4 3.4 5.8 92.1 1015.2 0.0 NNE 0.0 NW 0.0 0.1
01:30 4.4 3.1 5.8 92.2 1015.2 0.8 NW 2.8 NW 0.0 0.1
01:35 4.3 2.7 5.7 92.1 1015.2 1.8 NW 3.9 NW 0.0 0.1
01:40 4.0 2.3 5.6 91.9 1015.3 0.4 WNW 2.5 WNW 0.0 0.1
01:45 4.0 2.3 5.6 92.2 1015.3 0.8 WNW 3.5 WNW 0.0 0.1
01:50 3.8 2.1 5.5 92.3 1015.3 3.9 W 4.6 W 0.0 0.1
01:55 3.7 2.1 5.5 92.6 1015.3 1.1 W 3.9 W 0.0 0.1
02:00 3.7 2.3 5.5 92.7 1015.3 1.1 W 3.5 W 0.0 0.1
02:05 3.8 2.2 5.5 92.8 1015.2 1.2 NW 2.8 NW 0.0 0.1
02:10 3.7 2.2 5.5 92.8 1015.2 0.0 NNE 0.0 NW 0.0 0.1
02:15 3.7 2.0 5.4 92.8 1015.2 0.0 NNE 0.0 NW 0.0 0.1
02:20 3.7 2.1 5.4 93.0 1015.2 2.1 ESE 3.5 ESE 0.0 0.1
02:25 3.7 2.2 5.3 93.0 1015.2 1.8 ESE 2.5 ESE 0.0 0.1
02:30 3.7 2.2 5.3 93.1 1015.1 0.0 NNE 0.0 ESE 0.0 0.1
02:35 3.6 2.0 5.3 93.1 1015.1 0.0 NNE 0.0 ESE 0.0 0.1
02:40 3.4 1.8 5.3 92.9 1015.1 0.0 NNE 0.0 ESE 0.0 0.1
02:45 3.3 1.5 5.2 93.0 1015.1 0.0 NNE 0.0 ESE 0.0 0.1
02:50 3.2 1.3 5.2 93.0 1015.2 0.0 NNE 0.0 ESE 0.0 0.1
02:55 3.1 1.2 5.1 93.1 1015.2 0.4 W 2.8 WSW 0.0 0.1
03:00 2.9 0.9 5.1 93.0 1015.1 2.1 W 3.5 W 0.0 0.1
03:05 2.7 0.5 5.0 93.1 1015.1 2.2 W 2.8 WNW 0.0 0.1
03:10 2.6 0.4 4.9 93.2 1015.1 2.6 WSW 4.2 WSW 0.0 0.1
03:15 2.5 0.3 4.9 93.4 1015.1 0.7 SW 2.5 SW 0.0 0.1
03:20 2.4 0.3 4.8 93.5 1015.1 1.7 SE 3.5 SSE 0.0 0.1
03:25 2.5 0.6 4.7 93.6 1015.1 1.5 S 3.5 SSE 0.0 0.1
03:30 2.5 0.7 4.8 93.7 1015.0 0.0 NNE 0.0 SSW 0.0 0.1
03:35 2.5 0.8 4.7 93.8 1015.0 0.1 NE 2.1 NE 0.0 0.1
03:40 2.5 0.9 4.7 93.8 1015.0 0.0 NNE 0.0 NE 0.0 0.1
03:45 2.6 1.2 4.7 93.9 1015.0 1.8 ENE 2.8 ENE 0.0 0.1
03:50 2.7 1.6 4.8 94.0 1014.9 2.7 ESE 3.9 ESE 0.0 0.1
03:55 2.8 1.9 4.8 93.9 1014.9 0.5 ESE 2.8 ESE 0.0 0.1
04:00 2.9 2.0 4.8 94.0 1014.9 2.9 ESE 3.9 ESE 0.0 0.1
04:05 3.0 2.3 4.8 94.0 1015.0 1.1 SE 3.5 SE 0.0 0.1
04:10 3.0 2.2 4.9 93.8 1014.9 0.9 S 2.8 SSE 0.0 0.1
04:15 2.9 2.2 4.8 93.8 1014.9 0.0 NNE 0.0 SSW 0.0 0.1
04:20 2.9 2.2 4.8 93.8 1014.9 0.0 NNE 0.0 SSW 0.0 0.1
04:25 2.9 2.1 4.9 93.8 1014.9 0.0 NNE 0.0 SSW 0.0 0.1
04:30 3.0 2.2 4.8 93.9 1014.9 1.6 NNE 3.5 NNE 0.0 0.1
04:35 3.1 2.2 4.8 93.9 1014.9 0.2 NNE 1.8 NNE 0.0 0.1
04:40 3.1 2.4 4.9 93.8 1014.9 0.0 NNE 0.0 NNE 0.0 0.1
04:45 3.1 2.4 4.9 93.8 1014.9 0.0 NNE 1.1 NNE 0.0 0.1
04:50 3.2 2.5 4.9 93.8 1014.8 1.1 N 2.8 N 0.0 0.1
04:55 3.2 2.5 4.9 93.7 1014.8 1.7 N 4.6 N 0.0 0.1
05:00 3.2 2.3 4.9 93.7 1014.8 0.0 NNE 0.0 N 0.0 0.1
05:05 3.2 2.1 4.9 93.7 1014.8 0.0 NNE 0.0 N 0.0 0.1
05:10 3.1 1.6 4.8 93.6 1014.8 0.2 N 1.8 N 0.0 0.1
05:15 3.0 1.3 4.7 93.5 1014.8 0.0 NNE 0.0 N 0.0 0.1
05:20 2.8 1.0 4.7 93.5 1014.8 0.9 N 3.5 S 0.0 0.1
05:25 2.9 0.9 4.6 93.6 1014.8 2.3 S 3.9 S 0.0 0.1
05:30 2.7 0.9 4.6 93.5 1014.9 0.1 S 1.8 S 0.0 0.1
05:35 2.6 1.1 4.6 93.6 1014.9 0.0 NNE 0.0 S 0.0 0.1
05:40 2.7 1.3 4.6 93.7 1014.9 2.1 S 3.5 S 0.0 0.1
05:45 2.8 1.4 4.6 93.6 1014.9 0.1 SE 1.4 SE 0.0 0.1
05:50 2.8 1.5 4.6 93.6 1015.0 0.0 NNE 0.0 SE 0.0 0.1
05:55 2.8 1.5 4.6 93.6 1015.0 0.1 SE 1.4 SE 0.0 0.1
06:00 2.6 1.4 4.6 93.6 1015.0 0.0 NNE 0.0 SE 0.0 0.1
06:05 2.6 1.2 4.5 93.7 1015.1 0.0 NNE 0.0 SE 0.0 0.1
06:10 2.6 1.1 4.5 93.7 1015.1 0.0 NNE 0.0 SE 0.0 0.1
06:15 2.5 1.1 4.5 93.7 1015.1 0.0 NNE 0.0 SE 0.0 0.1
06:20 2.5 1.1 4.4 93.7 1015.1 0.0 NNE 0.0 SE 0.0 0.1
06:25 2.4 1.0 4.4 93.7 1015.1 0.0 NNE 0.0 SE 0.0 0.1
06:30 2.4 0.9 4.4 93.7 1015.2 0.0 NNE 0.0 SE 0.0 0.1
06:35 2.4 1.1 4.4 93.8 1015.2 0.0 NNE 0.0 SE 0.0 0.1
06:40 2.3 1.2 4.4 93.8 1015.3 0.0 NNE 0.0 SE 0.0 0.2
06:45 2.3 1.2 4.4 93.8 1015.3 0.0 NNE 0.0 SE 0.0 0.4
06:50 2.3 1.3 4.4 93.9 1015.3 1.0 N 2.8 SE 0.0 0.8
06:55 2.3 1.4 4.4 93.9 1015.4 0.0 NNE 0.0 NNW 0.0 1.4
07:00 2.5 1.6 4.4 94.0 1015.4 0.0 NNE 0.0 NNW 0.0 2.6
07:05 2.5 1.8 4.4 94.0 1015.4 0.4 NNE 2.1 N 0.0 3.9
07:10 2.6 2.0 4.5 94.0 1015.4 0.4 NE 2.5 NE 0.0 5.8
07:15 2.7 2.2 4.5 94.0 1015.4 1.7 ENE 3.9 ENE 0.0 8.9
Màxima 4.9 3.8 6.1 94.0 1015.5 3.9 W 5.0 S 0.0 8.9
Mínima 2.3 0.3 4.4 90.0 1014.8
Total 0.0